Time;durP1;ratioP1;P1;durP2;ratioP2;P2;SDS_P1;SDS_P2;PMS_P1;PMS_P2;Temp;Humidity;BMP_temperature;BMP_pressure;BME280_temperature;BME280_humidity;BME280_pressure;Samples;Min_cycle;Max_cycle;Signal;HPM_P1;HPM_P2
2021/07/01 00:02:39;;;;;;;18.98;8.90;;;;;;;12.89;76.50;100071.16;10311366;28;20708;-75
2021/07/01 00:07:45;;;;;;;19.65;10.70;;;;;;;13.00;75.91;100066.44;10302905;28;20282;-75
2021/07/01 00:12:48;;;;;;;17.80;10.30;;;;;;;13.34;75.02;100075.81;10310453;28;20242;-75
2021/07/01 00:17:52;;;;;;;18.38;10.43;;;;;;;13.23;74.96;100069.59;10310247;28;20227;-75
2021/07/01 00:22:57;;;;;;;20.45;10.13;;;;;;;13.00;75.41;100068.28;10310440;28;21840;-75
2021/07/01 00:28:00;;;;;;;17.23;9.48;;;;;;;12.98;75.39;100065.75;10311556;28;20235;-75
2021/07/01 00:33:03;;;;;;;15.63;8.75;;;;;;;12.82;75.36;100068.22;10310075;28;20239;-75
2021/07/01 00:38:07;;;;;;;14.80;9.00;;;;;;;13.06;74.44;100078.50;10307437;28;20641;-74
2021/07/01 00:43:10;;;;;;;15.57;8.85;;;;;;;13.21;73.87;100076.16;10310263;28;20239;-74
2021/07/01 00:48:13;;;;;;;14.63;9.00;;;;;;;13.03;74.35;100076.94;10308787;28;20227;-75
2021/07/01 00:53:17;;;;;;;14.23;8.45;;;;;;;12.91;75.20;100080.78;10310209;28;20239;-75
2021/07/01 00:58:22;;;;;;;17.50;9.05;;;;;;;12.93;74.82;100086.06;10307014;28;20235;-75
2021/07/01 01:03:25;;;;;;;12.38;8.15;;;;;;;12.81;75.43;100080.84;10292202;28;20389;-74
2021/07/01 01:08:30;;;;;;;18.52;9.35;;;;;;;12.91;75.16;100082.66;10308724;28;20239;-75
2021/07/01 01:13:33;;;;;;;22.83;10.18;;;;;;;13.00;74.80;100084.44;10309641;28;20243;-74
2021/07/01 01:18:54;;;;;;;18.95;10.25;;;;;;;12.62;75.33;100091.66;10308939;28;20219;-75
2021/07/01 01:24:00;;;;;;;17.88;9.73;;;;;;;12.59;75.98;100084.72;10306552;28;20388;-74
2021/07/01 01:29:04;;;;;;;16.40;10.10;;;;;;;12.41;76.25;100083.75;10307407;28;20766;-74
2021/07/01 01:34:07;;;;;;;21.95;10.98;;;;;;;12.50;76.09;100082.03;10306740;28;20239;-74
2021/07/01 01:39:12;;;;;;;17.70;9.57;;;;;;;12.54;75.89;100076.22;10347325;28;20230;-74
2021/07/01 01:44:17;;;;;;;20.80;12.13;;;;;;;12.49;76.05;100083.88;10349360;28;20768;-74
2021/07/01 01:49:21;;;;;;;20.00;11.13;;;;;;;12.53;75.62;100074.53;10329102;28;20226;-73
2021/07/01 01:54:27;;;;;;;17.67;10.90;;;;;;;12.62;75.33;100082.75;10347618;28;20919;-74
2021/07/01 01:59:31;;;;;;;16.40;10.18;;;;;;;12.50;75.93;100076.66;10347269;28;20233;-74
2021/07/01 02:05:07;;;;;;;18.73;10.07;;;;;;;12.39;76.52;100078.50;10325632;28;20858;-74
2021/07/01 02:10:15;;;;;;;18.08;9.80;;;;;;;11.99;78.61;100067.03;10346605;28;20711;-75
2021/07/01 02:15:21;;;;;;;17.63;10.65;;;;;;;12.05;80.44;100071.84;10327475;28;20234;-74
2021/07/01 02:20:27;;;;;;;17.80;9.65;;;;;;;11.73;81.19;100073.78;10344532;28;20327;-74
2021/07/01 02:25:33;;;;;;;22.70;11.27;;;;;;;11.48;82.35;100082.38;10321920;28;20236;-74
2021/07/01 02:30:46;;;;;;;20.52;9.85;;;;;;;11.76;82.49;100078.03;10306232;28;20238;-75
2021/07/01 02:35:49;;;;;;;20.92;10.65;;;;;;;11.70;83.35;100078.59;10306959;28;20239;-74
2021/07/01 02:41:12;;;;;;;27.17;12.10;;;;;;;11.34;84.69;100080.06;10307269;28;20321;-75
2021/07/01 02:46:18;;;;;;;25.42;11.73;;;;;;;11.54;84.81;100083.66;10303304;28;20264;-76
2021/07/01 02:51:25;;;;;;;23.38;12.02;;;;;;;11.79;84.32;100088.50;10295435;28;20334;-74
2021/07/01 02:56:40;;;;;;;24.73;12.82;;;;;;;11.60;84.73;100080.41;10312392;28;20250;-75
2021/07/01 03:01:48;;;;;;;31.15;12.68;;;;;;;11.98;85.24;100085.00;10311804;28;21732;-74
2021/07/01 03:07:08;;;;;;;26.02;12.63;;;;;;;11.81;84.76;100077.63;10313013;28;20238;-74
2021/07/01 03:12:13;;;;;;;26.45;13.70;;;;;;;11.43;85.80;100066.63;10294391;28;20897;-74
2021/07/01 03:17:16;;;;;;;26.05;13.27;;;;;;;11.61;85.51;100061.44;10312691;28;20238;-74
2021/07/01 03:22:19;;;;;;;30.25;14.32;;;;;;;11.58;85.79;100071.66;10295720;28;20735;-74
2021/07/01 03:27:24;;;;;;;32.28;14.55;;;;;;;11.72;85.44;100064.00;10295907;28;20254;-75
2021/07/01 03:32:28;;;;;;;28.27;13.02;;;;;;;11.68;85.27;100059.91;10310951;28;20242;-74
2021/07/01 03:37:31;;;;;;;32.22;13.77;;;;;;;11.56;85.66;100055.63;10312918;28;20234;-75
2021/07/01 03:43:09;;;;;;;26.00;13.85;;;;;;;11.60;85.47;100058.88;10267629;28;20254;-74
2021/07/01 03:48:15;;;;;;;30.60;14.38;;;;;;;11.71;85.56;100058.75;10295466;28;21002;-74
2021/07/01 03:53:38;;;;;;;32.17;14.38;;;;;;;11.62;85.65;100065.00;10310472;28;20710;-74
2021/07/01 03:58:44;;;;;;;27.67;13.35;;;;;;;11.55;85.71;100059.31;10292693;28;20257;-74
2021/07/01 04:04:22;;;;;;;24.77;12.57;;;;;;;11.43;86.28;100057.72;10262203;28;20657;-74
2021/07/01 04:09:25;;;;;;;26.35;12.07;;;;;;;11.38;86.68;100057.28;10310073;28;20607;-74
2021/07/01 04:14:52;;;;;;;30.60;13.32;;;;;;;11.61;86.23;100063.31;10304363;28;20273;-75
2021/07/01 04:20:14;;;;;;;27.30;13.40;;;;;;;11.81;85.56;100058.78;10312196;28;20226;-74
2021/07/01 04:25:55;;;;;;;25.80;12.90;;;;;;;11.67;85.18;100058.19;10224342;28;20315;-74
2021/07/01 04:31:01;;;;;;;24.30;12.38;;;;;;;11.71;84.91;100064.13;10323014;28;20230;-74
2021/07/01 04:36:13;;;;;;;29.65;12.30;;;;;;;11.61;85.22;100071.38;10333501;28;20240;-76
2021/07/01 04:41:19;;;;;;;28.50;13.05;;;;;;;11.70;85.35;100059.75;10351958;28;20241;-74
2021/07/01 04:46:25;;;;;;;21.67;9.73;;;;;;;11.60;85.31;100070.53;10331817;28;20230;-75
2021/07/01 04:51:30;;;;;;;25.92;11.45;;;;;;;11.80;85.07;100062.47;10352383;28;20241;-74
2021/07/01 04:56:58;;;;;;;19.55;10.90;;;;;;;11.92;84.52;100062.19;10351520;28;20295;-74
2021/07/01 05:02:03;;;;;;;21.60;9.52;;;;;;;11.50;85.50;100061.56;10334952;28;22015;-74
2021/07/01 05:07:18;;;;;;;21.27;9.95;;;;;;;11.59;86.07;100057.19;10351244;28;20245;-74
2021/07/01 05:12:24;;;;;;;22.45;9.15;;;;;;;11.71;85.97;100059.63;10330881;28;20837;-74
2021/07/01 05:17:28;;;;;;;13.93;7.95;;;;;;;11.62;85.96;100059.59;10332497;28;20241;-74
2021/07/01 05:22:32;;;;;;;20.73;9.75;;;;;;;11.81;85.32;100064.16;10351722;28;20238;-73
2021/07/01 05:27:54;;;;;;;16.80;9.32;;;;;;;11.83;85.81;100056.81;10348945;28;20255;-74
2021/07/01 05:33:16;;;;;;;17.27;9.13;;;;;;;12.09;84.92;100063.31;10267600;28;20239;-73
2021/07/01 05:38:26;;;;;;;18.85;8.77;;;;;;;11.84;85.89;100058.50;10282082;28;20235;-73
2021/07/01 05:43:30;;;;;;;16.90;9.13;;;;;;;11.43;87.07;100045.13;10269258;28;20250;-73
2021/07/01 05:48:34;;;;;;;16.35;8.40;;;;;;;11.65;87.61;100049.41;10269328;28;20254;-73
2021/07/01 05:53:42;;;;;;;15.40;7.93;;;;;;;11.69;86.89;100060.75;10267056;28;20830;-72
2021/07/01 05:58:45;;;;;;;15.43;8.60;;;;;;;11.56;87.18;100057.47;10266691;28;20240;-73
2021/07/01 06:03:50;;;;;;;15.30;8.15;;;;;;;11.82;86.77;100047.91;10267612;28;20659;-73
2021/07/01 06:09:23;;;;;;;14.30;7.55;;;;;;;11.81;86.49;100056.09;10231136;28;20273;-73
2021/07/01 06:14:28;;;;;;;15.13;8.50;;;;;;;11.97;86.14;100064.47;10266976;28;20244;-72
2021/07/01 06:19:34;;;;;;;14.20;7.07;;;;;;;11.85;86.72;100054.84;10272237;28;20240;-72
2021/07/01 06:24:37;;;;;;;12.52;6.93;;;;;;;11.83;86.62;100054.97;10271296;28;20310;-73
2021/07/01 06:29:41;;;;;;;14.68;7.65;;;;;;;11.70;86.94;100055.22;10276111;28;20351;-72
2021/07/01 06:34:45;;;;;;;12.65;7.90;;;;;;;11.91;86.05;100062.34;10270797;28;20243;-73
2021/07/01 06:39:51;;;;;;;14.48;7.22;;;;;;;11.76;86.21;100058.34;10273811;28;20247;-73
2021/07/01 06:45:14;;;;;;;16.67;7.43;;;;;;;11.47;86.68;100059.16;10271488;28;20244;-71
2021/07/01 06:50:47;;;;;;;12.45;6.88;;;;;;;11.66;86.08;100051.13;10258360;28;20238;-73
2021/07/01 06:56:09;;;;;;;14.48;7.30;;;;;;;11.61;86.93;100055.22;10271615;28;20705;-73
2021/07/01 07:01:12;;;;;;;11.95;6.28;;;;;;;11.84;86.10;100056.66;10270783;28;20239;-73
2021/07/01 07:06:17;;;;;;;11.57;5.43;;;;;;;11.80;86.50;100057.09;10272682;28;20239;-73
2021/07/01 07:11:19;;;;;;;13.90;6.20;;;;;;;12.13;85.78;100062.06;10271242;28;20227;-73
2021/07/01 07:16:22;;;;;;;10.55;5.45;;;;;;;11.81;86.02;100058.78;10270918;28;20235;-73
2021/07/01 07:21:28;;;;;;;14.50;5.28;;;;;;;11.95;86.50;100053.81;10270700;28;20235;-73
2021/07/01 07:26:33;;;;;;;11.32;6.20;;;;;;;11.86;86.48;100052.00;10317448;28;20610;-74
2021/07/01 07:31:53;;;;;;;14.00;7.10;;;;;;;11.80;87.06;100060.63;10351567;28;21352;-73
2021/07/01 07:36:57;;;;;;;10.82;6.45;;;;;;;11.70;87.23;100074.06;10350995;28;20375;-73
2021/07/01 07:42:01;;;;;;;12.02;6.15;;;;;;;11.76;86.82;100078.03;10352436;28;20588;-73
2021/07/01 07:47:04;;;;;;;15.18;7.70;;;;;;;12.05;86.58;100069.16;10350161;28;20238;-72
2021/07/01 07:52:12;;;;;;;17.45;8.50;;;;;;;11.86;87.37;100073.53;10351759;28;20288;-73
2021/07/01 07:57:15;;;;;;;18.70;8.95;;;;;;;11.83;87.17;100064.88;10352510;28;20239;-73
2021/07/01 08:02:32;;;;;;;15.68;8.10;;;;;;;12.07;86.51;100061.78;10349991;28;20233;-73
2021/07/01 08:07:39;;;;;;;16.58;9.00;;;;;;;12.14;86.86;100063.75;10350592;28;20610;-72
2021/07/01 08:12:44;;;;;;;15.60;7.38;;;;;;;12.02;86.47;100067.59;10351377;28;20392;-72
2021/07/01 08:17:49;;;;;;;13.57;6.97;;;;;;;12.12;86.07;100057.69;10349000;28;20234;-71
2021/07/01 08:22:56;;;;;;;16.20;6.95;;;;;;;12.02;86.33;100059.50;10365366;28;20242;-72
2021/07/01 08:27:59;;;;;;;13.95;8.02;;;;;;;12.10;85.99;100056.97;10350126;28;21383;-72
2021/07/01 08:33:02;;;;;;;14.30;7.40;;;;;;;12.28;85.85;100069.69;10348724;28;20261;-72
2021/07/01 08:38:08;;;;;;;15.75;8.02;;;;;;;12.06;86.80;100069.00;10364317;28;20234;-72
2021/07/01 08:43:13;;;;;;;15.88;6.70;;;;;;;11.82;87.40;100063.16;10350629;28;20242;-72
2021/07/01 08:48:21;;;;;;;17.33;8.35;;;;;;;12.17;87.09;100068.84;10347852;28;20230;-72
2021/07/01 08:53:51;;;;;;;12.00;7.05;;;;;;;12.17;87.78;100071.53;10348093;28;20234;-73
2021/07/01 08:59:00;;;;;;;11.27;5.75;;;;;;;12.03;87.45;100073.81;10344246;28;20234;-73
2021/07/01 09:04:04;;;;;;;10.40;5.30;;;;;;;12.10;87.86;100062.34;10347335;28;20241;-73
2021/07/01 09:09:10;;;;;;;8.80;4.53;;;;;;;11.83;88.62;100081.03;10347723;28;20611;-73
2021/07/01 09:14:16;;;;;;;7.53;4.38;;;;;;;12.04;88.17;100071.00;10347659;28;20614;-73
2021/07/01 09:19:19;;;;;;;9.35;4.93;;;;;;;12.16;87.61;100077.91;10350373;28;20733;-72
2021/07/01 09:24:27;;;;;;;7.32;4.28;;;;;;;12.10;88.60;100083.88;10347078;28;20722;-73
2021/07/01 09:29:32;;;;;;;9.23;4.85;;;;;;;12.19;88.18;100089.41;10347505;28;20230;-73
2021/07/01 09:34:36;;;;;;;6.25;3.70;;;;;;;12.44;87.57;100088.84;10346840;28;20238;-73
2021/07/01 09:39:41;;;;;;;7.43;4.28;;;;;;;12.27;88.39;100085.00;10349290;28;20238;-73
2021/07/01 09:44:44;;;;;;;7.93;4.03;;;;;;;12.22;88.06;100087.28;10348919;28;20321;-73
2021/07/01 09:49:51;;;;;;;10.00;4.70;;;;;;;12.27;88.46;100087.69;10347001;28;20233;-73
2021/07/01 09:55:02;;;;;;;8.05;4.65;;;;;;;12.34;88.48;100079.91;10332466;28;20781;-72
2021/07/01 10:00:07;;;;;;;5.35;3.30;;;;;;;12.42;88.29;100096.22;10312670;28;20737;-73
2021/07/01 10:05:26;;;;;;;6.35;3.45;;;;;;;12.45;88.30;100097.78;10313138;28;20638;-72
2021/07/01 10:10:43;;;;;;;5.07;2.95;;;;;;;12.28;88.71;100105.56;10312887;28;20227;-73
2021/07/01 10:15:52;;;;;;;3.92;2.50;;;;;;;12.52;88.24;100107.84;10327647;28;20238;-73
2021/07/01 10:20:57;;;;;;;5.55;2.63;;;;;;;12.56;87.53;100109.25;10312262;28;20262;-72
2021/07/01 10:26:10;;;;;;;4.60;2.58;;;;;;;12.76;87.27;100104.69;10312119;28;20234;-73
2021/07/01 10:31:14;;;;;;;3.92;3.10;;;;;;;12.62;88.12;100113.22;10311593;28;20234;-72
2021/07/01 10:36:20;;;;;;;4.30;2.58;;;;;;;12.50;87.74;100106.28;10311689;28;20227;-72
2021/07/01 10:41:29;;;;;;;5.05;2.70;;;;;;;12.72;87.81;100107.81;10311846;28;20238;-72
2021/07/01 10:46:39;;;;;;;2.97;2.33;;;;;;;12.58;87.86;100114.50;10314232;28;20257;-72
2021/07/01 10:51:54;;;;;;;2.65;1.77;;;;;;;12.26;88.20;100118.31;10314437;28;20246;-72
2021/07/01 10:57:07;;;;;;;2.50;1.52;;;;;;;12.48;87.97;100128.00;10312819;28;20238;-72
2021/07/01 11:02:21;;;;;;;4.60;1.40;;;;;;;12.57;87.78;100120.88;10320236;28;20237;-72
2021/07/01 11:07:25;;;;;;;1.20;1.10;;;;;;;12.85;86.81;100112.88;10308701;28;20280;-73
2021/07/01 11:12:30;;;;;;;2.78;1.00;;;;;;;12.16;88.00;100126.38;10311129;28;20727;-73
2021/07/01 11:17:48;;;;;;;0.90;0.90;;;;;;;12.17;89.22;100117.31;10321937;28;20246;-73
2021/07/01 11:22:54;;;;;;;1.52;1.10;;;;;;;12.59;88.23;100130.53;10329170;28;20242;-73
2021/07/01 11:28:23;;;;;;;2.72;1.27;;;;;;;12.34;88.89;100125.69;10329010;28;20234;-72
2021/07/01 11:33:26;;;;;;;1.33;1.23;;;;;;;12.47;88.76;100133.50;10324335;28;20727;-73
2021/07/01 11:38:31;;;;;;;1.60;1.20;;;;;;;12.34;88.62;100134.66;10329566;28;20230;-72
2021/07/01 11:43:39;;;;;;;1.90;1.42;;;;;;;12.47;88.56;100150.50;10343293;28;20242;-73
2021/07/01 11:48:44;;;;;;;1.50;1.40;;;;;;;12.41;88.64;100145.69;10325314;28;20254;-72
2021/07/01 11:53:48;;;;;;;1.20;1.10;;;;;;;12.41;88.37;100145.69;10325123;28;20243;-72
2021/07/01 11:58:53;;;;;;;1.35;1.08;;;;;;;12.57;88.20;100151.38;10320737;28;20756;-73
2021/07/01 12:03:56;;;;;;;1.42;1.30;;;;;;;12.52;88.90;100163.56;10309715;28;20231;-78
2021/07/01 12:09:00;;;;;;;1.38;0.98;;;;;;;12.43;88.62;100151.81;10314713;28;20238;-73
2021/07/01 12:14:30;;;;;;;1.25;1.10;;;;;;;12.58;88.48;100163.84;10348582;28;20250;-75
2021/07/01 12:20:03;;;;;;;1.23;1.10;;;;;;;12.68;88.54;100171.94;10349768;28;20226;-73
2021/07/01 12:25:10;;;;;;;1.40;1.30;;;;;;;12.90;88.23;100175.31;10352247;28;20238;-74
2021/07/01 12:30:14;;;;;;;2.25;1.00;;;;;;;12.58;88.76;100180.00;10348118;28;20223;-74
2021/07/01 12:35:39;;;;;;;1.17;1.08;;;;;;;12.89;88.19;100181.69;10348821;28;20234;-74
2021/07/01 12:40:55;;;;;;;1.20;1.02;;;;;;;12.81;90.25;100177.03;10347582;28;20733;-74
2021/07/01 12:46:00;;;;;;;1.20;1.10;;;;;;;12.57;89.66;100182.84;10347789;28;20238;-74
2021/07/01 12:51:37;;;;;;;1.95;1.00;;;;;;;12.95;88.37;100181.97;10349639;28;20235;-73
2021/07/01 12:56:40;;;;;;;1.17;1.08;;;;;;;12.69;89.38;100180.84;10347474;28;20296;-74
2021/07/01 13:01:45;;;;;;;0.95;0.88;;;;;;;12.87;89.15;100189.91;10318569;28;20671;-74
2021/07/01 13:06:49;;;;;;;0.88;0.88;;;;;;;13.00;89.02;100195.88;10306730;28;20242;-74
2021/07/01 13:11:52;;;;;;;1.25;1.00;;;;;;;12.50;90.36;100197.88;10307029;28;20242;-73
2021/07/01 13:17:02;;;;;;;2.70;1.35;;;;;;;12.71;89.67;100192.34;10337474;28;21389;-74
2021/07/01 13:22:12;;;;;;;1.55;1.45;;;;;;;12.81;89.51;100206.69;10346822;28;20229;-73
2021/07/01 13:27:33;;;;;;;1.90;1.58;;;;;;;12.59;90.26;100197.03;10348331;28;20574;-74
2021/07/01 13:32:38;;;;;;;1.40;1.30;;;;;;;12.77;89.37;100207.94;10331049;28;20230;-73
2021/07/01 13:37:42;;;;;;;1.70;1.60;;;;;;;12.91;89.21;100207.50;10306948;28;20255;-73
2021/07/01 13:42:46;;;;;;;4.22;1.30;;;;;;;12.71;89.60;100208.53;10306308;28;20715;-74
2021/07/01 13:47:53;;;;;;;1.90;1.38;;;;;;;12.77;89.60;100224.97;10305071;28;20235;-74
2021/07/01 13:52:59;;;;;;;1.52;1.40;;;;;;;13.07;88.83;100212.31;10305982;28;20620;-74
2021/07/01 13:58:03;;;;;;;2.28;1.70;;;;;;;12.94;88.95;100222.53;10308023;28;20242;-74
2021/07/01 14:03:10;;;;;;;2.60;1.50;;;;;;;12.83;89.43;100219.03;10307653;28;20731;-74
2021/07/01 14:08:24;;;;;;;1.67;1.58;;;;;;;13.12;88.45;100223.50;10306029;28;20227;-74
2021/07/01 14:13:28;;;;;;;2.30;1.88;;;;;;;12.89;89.06;100231.06;10305480;28;20231;-74
2021/07/01 14:18:34;;;;;;;2.97;2.10;;;;;;;13.34;88.30;100229.56;10305833;28;21793;-74
2021/07/01 14:23:37;;;;;;;2.13;1.80;;;;;;;13.39;88.67;100236.25;10307904;28;20243;-73
2021/07/01 14:28:44;;;;;;;1.80;1.70;;;;;;;13.55;87.93;100232.06;10307159;28;20270;-73
2021/07/01 14:33:58;;;;;;;1.77;1.65;;;;;;;13.25;89.55;100231.31;10305867;28;21517;-74
2021/07/01 14:39:05;;;;;;;3.60;1.58;;;;;;;13.57;88.35;100228.22;10307756;28;20234;-73
2021/07/01 14:44:09;;;;;;;2.42;2.15;;;;;;;13.68;88.09;100233.44;10307564;28;20242;-73
2021/07/01 14:49:16;;;;;;;2.85;2.08;;;;;;;13.64;87.86;100229.34;10335225;28;20238;-73
2021/07/01 14:54:22;;;;;;;4.05;2.40;;;;;;;13.73;87.87;100227.63;10333338;28;20246;-72
2021/07/01 14:59:44;;;;;;;3.83;2.78;;;;;;;13.77;88.14;100231.72;10332640;28;20230;-72
2021/07/01 15:04:48;;;;;;;3.25;2.67;;;;;;;13.99;86.85;100237.72;10339671;28;20238;-73
2021/07/01 15:09:53;;;;;;;4.43;2.90;;;;;;;14.08;86.45;100242.22;10354007;28;20233;-73
2021/07/01 15:14:58;;;;;;;5.97;3.30;;;;;;;13.84;86.79;100248.16;10350715;28;20242;-73
2021/07/01 15:20:02;;;;;;;7.40;3.13;;;;;;;13.68;86.90;100246.09;10352299;28;20644;-73
2021/07/01 15:25:08;;;;;;;6.30;4.13;;;;;;;13.83;87.20;100243.78;10336774;28;20241;-73
2021/07/01 15:30:15;;;;;;;8.85;5.03;;;;;;;13.72;87.47;100252.91;10311697;28;20297;-72
2021/07/01 15:35:20;;;;;;;10.43;5.85;;;;;;;13.84;86.97;100265.22;10333166;28;20242;-73
2021/07/01 15:40:23;;;;;;;11.70;5.88;;;;;;;13.65;87.93;100266.13;10350628;28;20234;-73
2021/07/01 15:45:25;;;;;;;11.50;6.05;;;;;;;13.69;87.39;100261.31;10349240;28;20241;-73
2021/07/01 15:50:30;;;;;;;12.27;6.18;;;;;;;13.77;86.95;100274.03;10351168;28;20233;-73
2021/07/01 15:55:33;;;;;;;9.80;6.20;;;;;;;13.52;87.77;100275.56;10348500;28;20238;-73
2021/07/01 16:00:36;;;;;;;17.63;8.38;;;;;;;13.42;88.31;100276.44;10351982;28;20281;-73
2021/07/01 16:05:42;;;;;;;16.42;7.93;;;;;;;13.62;87.67;100279.09;10313509;28;20720;-73
2021/07/01 16:10:45;;;;;;;28.95;11.93;;;;;;;13.46;88.52;100282.38;10309260;28;21399;-73
2021/07/01 16:15:48;;;;;;;24.95;11.73;;;;;;;13.60;88.33;100281.06;10322504;28;20876;-73
2021/07/01 16:20:54;;;;;;;30.30;15.35;;;;;;;13.55;88.38;100277.94;10308416;28;20242;-73
2021/07/01 16:25:58;;;;;;;31.08;13.48;;;;;;;13.39;89.07;100281.28;10308301;28;20239;-73
2021/07/01 16:31:02;;;;;;;28.48;14.48;;;;;;;13.55;88.02;100286.06;10308070;28;21780;-73
2021/07/01 16:36:06;;;;;;;32.33;15.13;;;;;;;13.46;88.69;100285.09;10307090;28;20246;-73
2021/07/01 16:41:11;;;;;;;39.47;15.20;;;;;;;13.32;88.50;100289.06;10318582;28;20235;-74
2021/07/01 16:46:16;;;;;;;34.13;15.85;;;;;;;13.37;88.56;100296.75;10331267;28;20230;-73
2021/07/01 16:51:21;;;;;;;27.25;13.13;;;;;;;13.37;88.56;100300.31;10353035;28;20236;-73
2021/07/01 16:56:26;;;;;;;35.08;15.65;;;;;;;13.73;87.66;100310.44;10348194;28;20242;-73
2021/07/01 17:01:29;;;;;;;26.80;12.93;;;;;;;13.55;88.16;100307.63;10347164;28;20245;-73
2021/07/01 17:06:35;;;;;;;31.00;13.23;;;;;;;13.20;89.09;100309.94;10347269;28;20321;-73
2021/07/01 17:11:40;;;;;;;29.45;14.25;;;;;;;13.26;88.74;100309.38;10347808;28;20242;-74
2021/07/01 17:16:49;;;;;;;36.63;15.45;;;;;;;13.42;88.48;100313.38;10331334;28;20231;-73
2021/07/01 17:21:57;;;;;;;29.52;15.30;;;;;;;13.14;89.38;100302.44;10322451;28;20230;-73
2021/07/01 17:27:00;;;;;;;27.15;15.07;;;;;;;13.38;88.52;100314.63;10327382;28;20239;-73
2021/07/01 17:32:03;;;;;;;47.92;17.88;;;;;;;13.17;89.33;100314.78;10328626;28;20230;-73
2021/07/01 17:37:08;;;;;;;38.53;17.63;;;;;;;13.28;89.00;100322.72;10328435;28;20250;-74
2021/07/01 17:42:12;;;;;;;41.70;18.33;;;;;;;13.31;88.71;100319.72;10324244;28;20238;-73
2021/07/01 17:47:15;;;;;;;43.38;18.20;;;;;;;13.22;89.16;100323.31;10331318;28;20593;-74
2021/07/01 17:52:19;;;;;;;44.30;18.20;;;;;;;13.16;89.14;100324.69;10312142;28;20262;-74
2021/07/01 17:57:22;;;;;;;41.03;19.02;;;;;;;13.39;88.09;100321.75;10319864;28;20231;-74
2021/07/01 18:02:25;;;;;;;53.67;20.42;;;;;;;13.24;88.69;100322.13;10314229;28;20230;-74
2021/07/01 18:07:29;;;;;;;58.97;23.55;;;;;;;13.11;89.58;100332.38;10316067;28;20238;-74
2021/07/01 18:12:32;;;;;;;64.63;24.60;;;;;;;13.45;88.27;100332.81;10305588;28;20223;-74
2021/07/01 18:17:36;;;;;;;69.20;25.05;;;;;;;13.26;89.09;100344.44;10306476;28;20269;-74
2021/07/01 18:22:42;;;;;;;65.15;25.45;;;;;;;13.40;88.47;100350.41;10316384;28;20235;-74
2021/07/01 18:27:45;;;;;;;63.67;25.10;;;;;;;13.25;88.83;100348.13;10315288;28;20239;-74
2021/07/01 18:32:48;;;;;;;63.97;23.83;;;;;;;13.40;87.99;100347.72;10347525;28;20238;-74
2021/07/01 18:37:52;;;;;;;65.72;25.50;;;;;;;13.31;88.40;100352.09;10354763;28;20246;-74
2021/07/01 18:42:56;;;;;;;70.03;26.23;;;;;;;13.28;88.53;100363.19;10345722;28;20268;-74
2021/07/01 18:47:59;;;;;;;62.42;22.92;;;;;;;13.18;88.33;100351.53;10353506;28;20233;-74
2021/07/01 18:53:04;;;;;;;54.85;21.75;;;;;;;13.11;88.83;100351.25;10352993;28;20250;-73
2021/07/01 18:58:06;;;;;;;63.90;25.42;;;;;;;13.17;88.58;100348.00;10355350;28;20273;-73
2021/07/01 19:03:09;;;;;;;51.47;22.75;;;;;;;13.10;88.90;100362.19;10354307;28;20293;-74
2021/07/01 19:08:14;;;;;;;65.97;24.25;;;;;;;12.92;89.20;100364.75;10353547;28;20238;-73
2021/07/01 19:13:17;;;;;;;60.03;23.27;;;;;;;12.86;89.94;100376.06;10357149;28;20242;-74
2021/07/01 19:18:20;;;;;;;62.63;24.85;;;;;;;12.97;89.30;100373.22;10350499;28;20235;-73
2021/07/01 19:23:24;;;;;;;76.80;25.60;;;;;;;12.85;89.51;100379.75;10354835;28;20881;-73
2021/07/01 19:28:27;;;;;;;72.82;23.92;;;;;;;12.80;90.01;100369.38;10348907;28;20245;-73
2021/07/01 19:33:30;;;;;;;56.13;25.52;;;;;;;12.93;89.58;100383.44;10354322;28;20234;-73
2021/07/01 19:38:36;;;;;;;64.20;23.00;;;;;;;12.97;89.20;100386.72;10351480;28;20246;-73
2021/07/01 19:43:40;;;;;;;68.05;26.73;;;;;;;12.98;89.42;100381.19;10332237;28;20615;-73
2021/07/01 19:48:44;;;;;;;78.68;27.85;;;;;;;12.85;89.60;100390.53;10340554;28;20234;-73
2021/07/01 19:53:50;;;;;;;70.00;25.13;;;;;;;12.79;89.95;100389.25;10348404;28;20269;-73
2021/07/01 19:58:55;;;;;;;79.68;27.80;;;;;;;12.94;89.15;100401.31;10352690;28;20230;-74
2021/07/01 20:03:57;;;;;;;90.30;28.83;;;;;;;13.05;88.79;100398.53;10368165;28;20297;-74
2021/07/01 20:09:02;;;;;;;71.65;27.67;;;;;;;12.83;89.56;100402.31;10351041;28;20609;-75
2021/07/01 20:14:06;;;;;;;85.57;29.88;;;;;;;12.90;89.88;100408.00;10330861;28;20234;-75
2021/07/01 20:19:09;;;;;;;75.82;27.80;;;;;;;12.73;90.39;100420.31;10327575;28;20615;-74
2021/07/01 20:24:16;;;;;;;77.10;31.73;;;;;;;13.03;89.49;100418.53;10333246;28;20239;-75
2021/07/01 20:29:19;;;;;;;83.28;28.50;;;;;;;12.97;89.26;100417.25;10313879;28;20354;-74
2021/07/01 20:34:25;;;;;;;76.82;29.70;;;;;;;13.13;88.80;100423.94;10312332;28;20231;-75
2021/07/01 20:39:32;;;;;;;85.45;28.35;;;;;;;12.99;89.29;100434.13;10311769;28;20236;-75
2021/07/01 20:44:35;;;;;;;79.05;29.52;;;;;;;13.05;89.00;100440.78;10309736;28;20239;-75
2021/07/01 20:49:37;;;;;;;81.75;29.40;;;;;;;13.11;88.89;100431.28;10312739;28;20235;-75
2021/07/01 20:54:42;;;;;;;82.63;31.13;;;;;;;12.99;89.30;100438.66;10325541;28;20239;-75
2021/07/01 20:59:48;;;;;;;77.22;26.98;;;;;;;13.10;88.82;100445.78;10309206;28;20239;-74
2021/07/01 21:04:50;;;;;;;78.60;30.05;;;;;;;13.08;89.17;100442.38;10309641;28;20721;-75
2021/07/01 21:09:58;;;;;;;79.40;27.60;;;;;;;13.08;88.42;100442.38;10309769;28;20238;-75
2021/07/01 21:15:04;;;;;;;77.80;28.00;;;;;;;12.90;89.35;100459.22;10306867;28;20239;-74
2021/07/01 21:20:10;;;;;;;69.78;26.00;;;;;;;13.00;89.05;100452.03;10306961;28;20231;-74
2021/07/01 21:25:16;;;;;;;67.60;26.55;;;;;;;13.39;87.54;100452.09;10307554;28;21846;-75
2021/07/01 21:30:20;;;;;;;76.30;27.83;;;;;;;13.36;87.39;100455.06;10309186;28;21391;-74
2021/07/01 21:35:23;;;;;;;76.45;28.02;;;;;;;13.48;86.95;100456.63;10307029;28;20243;-74
2021/07/01 21:40:30;;;;;;;60.05;26.20;;;;;;;13.48;86.82;100453.94;10308563;28;20300;-75
2021/07/01 21:45:35;;;;;;;71.60;23.48;;;;;;;13.28;87.44;100450.34;10306990;28;20243;-75
2021/07/01 21:50:38;;;;;;;57.97;25.83;;;;;;;13.42;87.06;100451.81;10310905;28;20243;-75
2021/07/01 21:55:43;;;;;;;72.80;26.90;;;;;;;13.16;87.98;100458.69;10313845;28;21089;-74
2021/07/01 22:00:46;;;;;;;69.95;25.23;;;;;;;13.38;86.84;100460.31;10327731;28;20246;-74
2021/07/01 22:05:49;;;;;;;60.80;25.27;;;;;;;13.13;87.64;100467.91;10312142;28;20719;-74
2021/07/01 22:11:01;;;;;;;63.20;26.38;;;;;;;13.30;87.34;100469.09;10316318;28;20587;-74
2021/07/01 22:16:08;;;;;;;65.15;23.85;;;;;;;13.36;86.86;100479.34;10313932;28;20230;-74
2021/07/01 22:21:13;;;;;;;63.70;24.40;;;;;;;13.42;86.44;100473.41;10312537;28;20314;-75
2021/07/01 22:26:18;;;;;;;63.88;23.13;;;;;;;13.33;86.50;100478.75;10313268;28;20268;-74
2021/07/01 22:31:21;;;;;;;54.33;23.30;;;;;;;13.35;86.39;100483.00;10316407;28;20243;-74
2021/07/01 22:36:26;;;;;;;54.15;24.25;;;;;;;13.45;85.83;100474.97;10314206;28;20281;-74
2021/07/01 22:41:30;;;;;;;60.15;21.48;;;;;;;13.34;86.28;100470.53;10312293;28;20286;-75
2021/07/01 22:46:33;;;;;;;54.67;23.25;;;;;;;13.44;85.86;100463.31;10312302;28;20242;-74
2021/07/01 22:51:36;;;;;;;62.60;23.58;;;;;;;13.30;86.13;100481.72;10312091;28;20845;-75
2021/07/01 22:56:40;;;;;;;62.38;22.58;;;;;;;13.27;86.05;100472.94;10314095;28;20242;-74
2021/07/01 23:01:43;;;;;;;54.33;20.75;;;;;;;13.23;86.07;100468.78;10311017;28;20245;-74
2021/07/01 23:06:46;;;;;;;57.17;20.73;;;;;;;13.03;87.16;100473.31;10324377;28;20719;-74
2021/07/01 23:11:50;;;;;;;57.88;20.35;;;;;;;12.98;86.27;100472.03;10313302;28;20243;-74